Terminal Aerodrome Forecast
Issued by NWS Austin/San Antonio, TX

Home | Current Version | Previous Version | Text Only | Print | Product List | Glossary On
Versions: 1 2 3 4 5 6 7 8 9 10 11 12 13 14 15 16 17 18 19 20 21 22 23 24 25
062
FTUS44 KEWX 291739
TAFDRT
TAF
KDRT 291739Z 2918/3018 10008KT 5SM HZ FEW018 SCT027
     FM292100 05008KT 5SM HZ SKC
     FM300600 VRB04KT 5SM BR SKC=

USA.gov is the U.S. government's official web portal to all federal, state and local government web resources and services.